createdAt,value
2023-04-18T00:00:15.553Z,11.08
2023-04-18T00:01:15.573Z,10.92
2023-04-18T00:02:15.634Z,10.86
2023-04-18T00:03:15.893Z,10.72
2023-04-18T00:04:16.061Z,10.82
2023-04-18T00:05:15.744Z,10.75
2023-04-18T00:06:15.728Z,10.86
2023-04-18T00:07:15.764Z,10.82
2023-04-18T00:08:15.765Z,10.92
2023-04-18T00:09:15.790Z,10.89
2023-04-18T00:10:15.782Z,10.87
2023-04-18T00:11:15.794Z,11.04
2023-04-18T00:12:15.814Z,10.98
2023-04-18T00:13:15.820Z,10.76
2023-04-18T00:14:16.035Z,10.58
2023-04-18T00:15:15.893Z,10.55
2023-04-18T00:16:15.920Z,10.59
2023-04-18T00:17:15.931Z,10.77
2023-04-18T00:18:15.921Z,10.71
2023-04-18T00:19:15.954Z,10.65
2023-04-18T00:20:15.933Z,10.75
2023-04-18T00:21:15.943Z,10.77
2023-04-18T00:22:15.935Z,10.79
2023-04-18T00:23:15.909Z,10.79
2023-04-18T00:24:16.136Z,10.75
2023-04-18T00:25:16.010Z,10.84
2023-04-18T00:26:15.983Z,10.68
2023-04-18T00:27:15.985Z,10.72
2023-04-18T00:28:16.053Z,10.89
2023-04-18T00:29:16.061Z,11.15
2023-04-18T00:30:16.047Z,10.95
2023-04-18T00:31:16.145Z,10.86
2023-04-18T00:32:16.120Z,10.98
2023-04-18T00:33:16.095Z,10.69
2023-04-18T00:34:16.131Z,10.76
2023-04-18T00:35:16.099Z,10.87
2023-04-18T00:36:16.094Z,10.77
2023-04-18T00:37:16.101Z,11.01
2023-04-18T00:38:16.090Z,11.05
2023-04-18T00:39:16.080Z,11.08
2023-04-18T00:40:16.176Z,11.20
2023-04-18T00:41:16.180Z,11.20
2023-04-18T00:42:16.181Z,11.05
2023-04-18T00:43:16.190Z,10.95
2023-04-18T00:44:16.359Z,10.65
2023-04-18T00:45:16.261Z,10.72
2023-04-18T00:46:16.304Z,10.86
2023-04-18T00:47:16.316Z,11.04
2023-04-18T00:48:16.317Z,10.92
2023-04-18T00:49:16.360Z,10.84
2023-04-18T00:50:16.371Z,10.71
2023-04-18T00:51:16.405Z,10.77
2023-04-18T00:52:16.426Z,10.87
2023-04-18T00:53:16.427Z,10.92
2023-04-18T00:54:16.478Z,10.77
2023-04-18T00:55:16.435Z,10.83
2023-04-18T00:56:16.480Z,10.86
2023-04-18T00:57:16.543Z,11.00
2023-04-18T00:58:16.595Z,10.87
2023-04-18T00:59:16.599Z,10.67
2023-04-18T01:00:16.608Z,10.71
2023-04-18T01:01:16.645Z,10.82
2023-04-18T01:02:16.771Z,10.83
2023-04-18T01:03:16.822Z,10.76
2023-04-18T01:04:17.115Z,10.53
2023-04-18T01:05:16.699Z,10.42
2023-04-18T01:06:16.714Z,10.49
2023-04-18T01:07:16.741Z,10.61
2023-04-18T01:08:16.730Z,10.84
2023-04-18T01:09:16.736Z,10.97
2023-04-18T01:10:16.734Z,11.12
2023-04-18T01:11:16.732Z,11.00
2023-04-18T01:12:16.741Z,11.04
2023-04-18T01:13:16.766Z,10.94
2023-04-18T01:14:16.801Z,10.67
2023-04-18T01:15:16.784Z,10.80
2023-04-18T01:16:16.890Z,10.83
2023-04-18T01:17:16.880Z,10.76
2023-04-18T01:18:16.862Z,10.87
2023-04-18T01:19:16.931Z,10.77
2023-04-18T01:20:17.011Z,10.89
2023-04-18T01:21:16.936Z,10.46
2023-04-18T01:22:17.013Z,10.46
2023-04-18T01:23:17.044Z,10.42
2023-04-18T01:24:17.041Z,10.51
2023-04-18T01:25:17.044Z,10.67
2023-04-18T01:26:17.043Z,10.84
2023-04-18T01:27:17.042Z,10.77
2023-04-18T01:28:17.054Z,10.72
2023-04-18T01:29:17.057Z,10.57
2023-04-18T01:30:17.094Z,10.51
2023-04-18T01:31:17.135Z,10.64
2023-04-18T01:32:17.113Z,10.79
2023-04-18T01:33:17.127Z,10.84
2023-04-18T01:34:17.162Z,10.76
2023-04-18T01:35:17.175Z,10.64
2023-04-18T01:36:17.138Z,10.58
2023-04-18T01:37:17.154Z,10.80
2023-04-18T01:38:17.151Z,10.98
2023-04-18T01:39:17.162Z,10.89
2023-04-18T01:40:17.170Z,11.08
2023-04-18T01:41:17.178Z,11.00
2023-04-18T01:42:17.173Z,10.64
2023-04-18T01:43:17.178Z,10.68
2023-04-18T01:44:17.189Z,10.75
2023-04-18T01:45:17.202Z,10.97
2023-04-18T01:46:17.274Z,11.08
2023-04-18T01:47:17.290Z,11.18
2023-04-18T01:48:17.292Z,11.16
2023-04-18T01:49:17.298Z,11.01
2023-04-18T01:50:17.323Z,10.95
2023-04-18T01:51:17.322Z,10.94
2023-04-18T01:52:17.346Z,10.86
2023-04-18T01:53:17.350Z,10.80
2023-04-18T01:54:17.349Z,10.67
2023-04-18T01:55:17.358Z,10.84
2023-04-18T01:56:17.375Z,10.84
2023-04-18T01:57:17.459Z,10.67
2023-04-18T01:58:17.431Z,10.62
2023-04-18T01:59:17.440Z,10.69
2023-04-18T02:00:17.448Z,10.76
2023-04-18T02:01:17.473Z,10.75
2023-04-18T02:02:17.593Z,10.45
2023-04-18T02:03:17.715Z,10.55
2023-04-18T02:04:17.738Z,10.58
2023-04-18T02:05:17.524Z,10.41
2023-04-18T02:06:17.528Z,10.49
2023-04-18T02:07:17.548Z,10.64
2023-04-18T02:08:17.525Z,10.61
2023-04-18T02:09:17.532Z,10.75
2023-04-18T02:10:17.551Z,10.75
2023-04-18T02:11:17.560Z,10.72
2023-04-18T02:12:17.585Z,10.68
2023-04-18T02:13:17.595Z,10.72
2023-04-18T02:14:17.598Z,10.83
2023-04-18T02:15:17.625Z,10.75
2023-04-18T02:16:17.685Z,10.87
2023-04-18T02:17:17.677Z,10.59
2023-04-18T02:18:17.683Z,10.30
2023-04-18T02:19:17.707Z,10.55
2023-04-18T02:20:17.712Z,10.64
2023-04-18T02:21:17.748Z,10.58
2023-04-18T02:22:17.790Z,10.72
2023-04-18T02:23:17.810Z,10.90
2023-04-18T02:24:17.821Z,10.77
2023-04-18T02:25:17.906Z,10.48
2023-04-18T02:26:17.879Z,10.24
2023-04-18T02:27:17.944Z,10.27
2023-04-18T02:28:17.975Z,10.45
2023-04-18T02:29:18.003Z,10.58
2023-04-18T02:30:18.005Z,10.64
2023-04-18T02:31:18.025Z,10.62
2023-04-18T02:32:18.055Z,10.48
2023-04-18T02:33:18.095Z,10.43
2023-04-18T02:34:18.122Z,10.34
2023-04-18T02:35:18.176Z,10.18
2023-04-18T02:36:18.188Z,10.31
2023-04-18T02:37:18.207Z,10.34
2023-04-18T02:38:18.231Z,10.31
2023-04-18T02:39:18.262Z,10.31
2023-04-18T02:40:18.246Z,10.30
2023-04-18T02:41:18.281Z,9.94
2023-04-18T02:42:18.292Z,10.12
2023-04-18T02:43:18.322Z,10.06
2023-04-18T02:44:18.311Z,10.05
2023-04-18T02:45:18.363Z,10.10
2023-04-18T02:46:18.361Z,10.06
2023-04-18T02:47:18.398Z,10.13
2023-04-18T02:48:18.437Z,9.91
2023-04-18T02:49:18.414Z,9.88
2023-04-18T02:50:18.502Z,9.85
2023-04-18T02:51:18.504Z,9.76
2023-04-18T02:52:18.552Z,9.87
2023-04-18T02:53:18.529Z,9.99
2023-04-18T02:54:18.552Z,10.05
2023-04-18T02:55:18.571Z,10.23
2023-04-18T02:56:18.605Z,10.17
2023-04-18T02:57:18.627Z,10.39
2023-04-18T02:58:18.656Z,10.30
2023-04-18T02:59:18.673Z,10.21
2023-04-18T03:00:18.702Z,10.21
2023-04-18T03:01:18.920Z,10.05
2023-04-18T03:02:18.828Z,10.10
2023-04-18T03:03:18.856Z,10.10
2023-04-18T03:04:18.829Z,10.03
2023-04-18T03:05:18.794Z,9.80
2023-04-18T03:06:18.820Z,9.82
2023-04-18T03:07:18.873Z,9.62
2023-04-18T03:08:18.944Z,9.66
2023-04-18T03:09:18.963Z,9.74
2023-04-18T03:10:18.986Z,9.81
2023-04-18T03:11:19.019Z,9.81
2023-04-18T03:12:19.098Z,9.70
2023-04-18T03:13:19.111Z,9.59
2023-04-18T03:14:19.161Z,9.69
2023-04-18T03:15:19.165Z,9.77
2023-04-18T03:16:19.215Z,9.74
2023-04-18T03:17:19.176Z,9.73
2023-04-18T03:18:19.219Z,9.82
2023-04-18T03:19:19.245Z,10.03
2023-04-18T03:20:19.268Z,10.20
2023-04-18T03:21:19.258Z,10.12
2023-04-18T03:22:19.305Z,9.92
2023-04-18T03:23:19.338Z,9.76
2023-04-18T03:24:19.399Z,9.87
2023-04-18T03:25:19.451Z,9.94
2023-04-18T03:26:19.520Z,9.88
2023-04-18T03:27:19.570Z,9.84
2023-04-18T03:28:19.608Z,9.88
2023-04-18T03:29:19.663Z,9.91
2023-04-18T03:30:19.684Z,9.76
2023-04-18T03:31:19.758Z,9.85
2023-04-18T03:32:19.809Z,9.76
2023-04-18T03:33:19.775Z,9.80
2023-04-18T03:34:19.812Z,9.85
2023-04-18T03:35:19.860Z,9.87
2023-04-18T03:36:19.897Z,10.12
2023-04-18T03:37:19.924Z,9.99
2023-04-18T03:38:19.924Z,9.88
2023-04-18T03:39:19.989Z,9.81
2023-04-18T03:40:20.031Z,9.85
2023-04-18T03:41:20.008Z,9.99
2023-04-18T03:42:20.002Z,9.94
2023-04-18T03:43:20.070Z,9.72
2023-04-18T03:44:20.063Z,9.66
2023-04-18T03:45:20.086Z,9.59
2023-04-18T03:46:20.136Z,9.70
2023-04-18T03:47:20.187Z,9.74
2023-04-18T03:48:20.242Z,9.97
2023-04-18T03:49:20.269Z,9.74
2023-04-18T03:50:20.288Z,9.85
2023-04-18T03:51:20.343Z,9.67
2023-04-18T03:52:20.396Z,9.77
2023-04-18T03:53:20.454Z,9.77
2023-04-18T03:54:20.449Z,9.76
2023-04-18T03:55:20.433Z,9.56
2023-04-18T03:56:20.498Z,9.59
2023-04-18T03:57:20.506Z,9.62
2023-04-18T03:58:21.643Z,9.72
2023-04-18T03:59:20.602Z,9.73
2023-04-18T04:00:20.616Z,9.73
2023-04-18T04:01:20.678Z,9.56
2023-04-18T04:02:20.790Z,9.54
2023-04-18T04:03:20.852Z,9.62
2023-04-18T04:04:20.842Z,9.63
2023-04-18T04:05:20.806Z,9.64
2023-04-18T04:06:20.848Z,9.56
2023-04-18T04:07:20.908Z,9.80
2023-04-18T04:08:20.917Z,9.80
2023-04-18T04:09:20.910Z,9.84
2023-04-18T04:10:20.964Z,9.77
2023-04-18T04:11:20.972Z,9.69
2023-04-18T04:12:20.985Z,9.67
2023-04-18T04:13:20.977Z,9.74
2023-04-18T04:14:20.961Z,9.77
2023-04-18T04:15:20.973Z,9.69
2023-04-18T04:16:21.003Z,9.74
2023-04-18T04:17:20.947Z,9.90
2023-04-18T04:18:20.976Z,10.05
2023-04-18T04:19:20.996Z,9.95
2023-04-18T04:20:21.005Z,9.84
2023-04-18T04:21:21.289Z,9.62
2023-04-18T04:22:21.071Z,9.55
2023-04-18T04:23:21.080Z,9.58
2023-04-18T04:24:21.135Z,9.67
2023-04-18T04:25:21.191Z,9.80
2023-04-18T04:26:21.268Z,9.81
2023-04-18T04:27:21.282Z,9.66
2023-04-18T04:28:21.328Z,9.56
2023-04-18T04:29:21.333Z,9.47
2023-04-18T04:30:21.373Z,9.54
2023-04-18T04:31:21.427Z,9.63
2023-04-18T04:32:21.419Z,9.66
2023-04-18T04:33:21.425Z,9.62
2023-04-18T04:34:21.448Z,9.45
2023-04-18T04:35:21.505Z,9.58
2023-04-18T04:36:21.536Z,9.59
2023-04-18T04:37:21.593Z,9.64
2023-04-18T04:38:21.607Z,9.47
2023-04-18T04:39:21.622Z,9.63
2023-04-18T04:40:21.635Z,9.58
2023-04-18T04:41:21.692Z,9.44
2023-04-18T04:42:21.728Z,9.18
2023-04-18T04:43:21.747Z,9.22
2023-04-18T04:44:21.830Z,9.45
2023-04-18T04:45:21.806Z,9.39
2023-04-18T04:46:21.846Z,9.42
2023-04-18T04:47:21.913Z,9.55
2023-04-18T04:48:21.887Z,9.70
2023-04-18T04:49:21.932Z,9.74
2023-04-18T04:50:22.001Z,9.74
2023-04-18T04:51:21.981Z,9.66
2023-04-18T04:52:22.023Z,9.34
2023-04-18T04:53:22.067Z,9.34
2023-04-18T04:54:22.139Z,9.55
2023-04-18T04:55:22.196Z,9.58
2023-04-18T04:56:22.185Z,9.45
2023-04-18T04:57:22.208Z,9.59
2023-04-18T04:58:22.285Z,9.69
2023-04-18T04:59:22.293Z,9.64
2023-04-18T05:00:22.287Z,9.55
2023-04-18T05:01:22.416Z,9.49
2023-04-18T05:02:22.487Z,9.27
2023-04-18T05:03:22.531Z,9.39
2023-04-18T05:04:22.577Z,9.62
2023-04-18T05:05:22.503Z,9.48
2023-04-18T05:06:22.552Z,9.73
2023-04-18T05:07:22.612Z,9.59
2023-04-18T05:08:22.598Z,9.47
2023-04-18T05:09:22.606Z,9.45
2023-04-18T05:10:22.602Z,9.55
2023-04-18T05:11:22.662Z,9.63
2023-04-18T05:12:22.729Z,9.55
2023-04-18T05:13:22.799Z,9.64
2023-04-18T05:14:22.822Z,9.81
2023-04-18T05:15:22.896Z,10.00
2023-04-18T05:16:23.038Z,10.02
2023-04-18T05:17:23.018Z,10.17
2023-04-18T05:18:23.020Z,10.02
2023-04-18T05:19:23.043Z,9.92
2023-04-18T05:20:23.102Z,9.85
2023-04-18T05:21:23.122Z,9.85
2023-04-18T05:22:23.160Z,9.82
2023-04-18T05:23:23.215Z,9.74
2023-04-18T05:24:23.235Z,9.74
2023-04-18T05:25:23.297Z,9.84
2023-04-18T05:26:23.368Z,9.97
2023-04-18T05:27:23.346Z,9.91
2023-04-18T05:28:23.378Z,9.76
2023-04-18T05:29:23.378Z,9.63
2023-04-18T05:30:23.375Z,9.82
2023-04-18T05:31:23.441Z,9.56
2023-04-18T05:32:23.510Z,9.62
2023-04-18T05:33:23.422Z,9.70
2023-04-18T05:34:23.442Z,9.76
2023-04-18T05:35:23.476Z,9.52
2023-04-18T05:36:23.482Z,9.51
2023-04-18T05:37:23.485Z,9.55
2023-04-18T05:38:23.499Z,9.55
2023-04-18T05:39:23.540Z,9.48
2023-04-18T05:40:23.624Z,9.52
2023-04-18T05:41:23.624Z,9.45
2023-04-18T05:42:23.697Z,9.62
2023-04-18T05:43:23.691Z,9.67
2023-04-18T05:44:23.769Z,9.52
2023-04-18T05:45:23.810Z,9.47
2023-04-18T05:46:24.016Z,9.42
2023-04-18T05:47:23.859Z,9.45
2023-04-18T05:48:23.829Z,9.64
2023-04-18T05:49:23.857Z,9.80
2023-04-18T05:50:23.901Z,10.00
2023-04-18T05:51:23.979Z,9.87
2023-04-18T05:52:24.012Z,9.85
2023-04-18T05:53:24.056Z,9.55
2023-04-18T05:54:24.130Z,9.47
2023-04-18T05:55:24.161Z,9.55
2023-04-18T05:56:24.187Z,9.66
2023-04-18T05:57:24.203Z,9.66
2023-04-18T05:58:24.227Z,9.63
2023-04-18T05:59:24.285Z,9.81
2023-04-18T06:00:24.365Z,9.99
2023-04-18T06:01:24.356Z,9.91
2023-04-18T06:02:24.626Z,9.91
2023-04-18T06:03:24.526Z,9.92
2023-04-18T06:04:24.588Z,9.84
2023-04-18T06:05:24.819Z,10.02
2023-04-18T06:06:24.541Z,9.91
2023-04-18T06:07:24.590Z,9.87
2023-04-18T06:08:24.634Z,9.94
2023-04-18T06:09:24.694Z,9.92
2023-04-18T06:10:24.716Z,9.88
2023-04-18T06:11:24.720Z,9.62
2023-04-18T06:12:24.718Z,9.49
2023-04-18T06:13:24.748Z,9.66
2023-04-18T06:14:24.780Z,9.64
2023-04-18T06:15:24.819Z,9.80
2023-04-18T06:16:24.931Z,10.00
2023-04-18T06:17:24.899Z,9.91
2023-04-18T06:18:24.907Z,9.84
2023-04-18T06:19:24.956Z,9.67
2023-04-18T06:20:25.052Z,9.74
2023-04-18T06:21:25.089Z,9.88
2023-04-18T06:22:25.088Z,9.72
2023-04-18T06:23:25.132Z,9.72
2023-04-18T06:24:25.129Z,9.77
2023-04-18T06:25:25.212Z,9.87
2023-04-18T06:26:25.225Z,10.02
2023-04-18T06:27:31.088Z,9.76
2023-04-18T06:28:25.258Z,9.81
2023-04-18T06:29:25.290Z,9.92
2023-04-18T06:30:25.326Z,9.88
2023-04-18T06:31:25.372Z,9.88
2023-04-18T06:32:25.461Z,9.94
2023-04-18T06:33:25.398Z,9.77
2023-04-18T06:34:25.421Z,9.97
2023-04-18T06:35:26.648Z,10.10
2023-04-18T06:36:25.429Z,10.13
2023-04-18T06:37:25.506Z,9.94
2023-04-18T06:38:25.472Z,10.09
2023-04-18T06:39:25.560Z,10.17
2023-04-18T06:40:27.172Z,10.10
2023-04-18T06:41:25.602Z,9.80
2023-04-18T06:42:25.607Z,9.77
2023-04-18T06:43:25.636Z,9.85
2023-04-18T06:44:25.647Z,9.82
2023-04-18T06:45:29.262Z,9.77
2023-04-18T06:46:27.146Z,9.82
2023-04-18T06:47:25.960Z,9.84
2023-04-18T06:48:26.010Z,9.85
2023-04-18T06:49:26.753Z,9.92
2023-04-18T06:50:25.920Z,10.23
2023-04-18T06:51:26.044Z,10.21
2023-04-18T06:52:25.975Z,10.23
2023-04-18T06:53:26.055Z,10.02
2023-04-18T06:54:26.125Z,9.95
2023-04-18T06:55:26.132Z,10.21
2023-04-18T06:56:26.247Z,10.27
2023-04-18T06:57:26.245Z,10.45
2023-04-18T06:58:26.281Z,10.58
2023-04-18T06:59:26.361Z,10.58
2023-04-18T07:00:26.361Z,10.68
2023-04-18T07:01:26.380Z,10.89
2023-04-18T07:02:26.435Z,10.97
2023-04-18T07:03:26.481Z,11.02
2023-04-18T07:04:26.598Z,11.01
2023-04-18T07:05:26.414Z,11.35
2023-04-18T07:06:26.424Z,11.12
2023-04-18T07:07:26.455Z,11.18
2023-04-18T07:08:26.637Z,11.27
2023-04-18T07:09:26.513Z,11.34
2023-04-18T07:10:26.613Z,11.27
2023-04-18T07:11:26.534Z,11.40
2023-04-18T07:12:26.547Z,11.19
2023-04-18T07:13:26.856Z,10.97
2023-04-18T07:14:26.677Z,11.19
2023-04-18T07:15:26.765Z,11.37
2023-04-18T07:16:26.750Z,11.65
2023-04-18T07:17:26.797Z,11.77
2023-04-18T07:18:37.419Z,11.59
2023-04-18T07:19:26.879Z,11.33
2023-04-18T07:20:26.968Z,11.25
2023-04-18T07:21:27.056Z,11.23
2023-04-18T07:22:27.057Z,11.26
2023-04-18T07:23:27.065Z,11.63
2023-04-18T07:24:27.102Z,11.59
2023-04-18T07:25:27.128Z,11.56
2023-04-18T07:26:27.232Z,11.68
2023-04-18T07:27:27.221Z,11.23
2023-04-18T07:28:27.284Z,11.37
2023-04-18T07:29:27.224Z,11.62
2023-04-18T07:30:27.281Z,11.49
2023-04-18T07:31:27.294Z,11.49
2023-04-18T07:32:27.332Z,11.67
2023-04-18T07:33:27.411Z,11.73
2023-04-18T07:34:27.411Z,11.27
2023-04-18T07:35:27.463Z,11.30
2023-04-18T07:36:27.375Z,11.59
2023-04-18T07:37:27.404Z,11.81
2023-04-18T07:38:27.426Z,11.68
2023-04-18T07:39:27.473Z,11.77
2023-04-18T07:40:27.528Z,11.51
2023-04-18T07:41:27.564Z,11.65
2023-04-18T07:42:27.627Z,11.73
2023-04-18T07:43:27.638Z,11.40
2023-04-18T07:44:27.712Z,11.20
2023-04-18T07:45:27.731Z,11.30
2023-04-18T07:46:27.755Z,11.02
2023-04-18T07:47:29.920Z,11.02
2023-04-18T07:48:27.835Z,10.95
2023-04-18T07:49:27.866Z,10.67
2023-04-18T07:50:27.843Z,10.55
2023-04-18T07:51:27.901Z,10.80
2023-04-18T07:52:27.910Z,11.04
2023-04-18T07:53:27.894Z,11.45
2023-04-18T07:54:27.931Z,11.56
2023-04-18T07:55:28.006Z,11.65
2023-04-18T07:56:28.077Z,11.99
2023-04-18T07:57:28.134Z,12.26
2023-04-18T07:58:28.147Z,12.23
2023-04-18T07:59:28.164Z,11.97
2023-04-18T08:00:28.208Z,12.33
2023-04-18T08:01:28.269Z,12.33
2023-04-18T08:02:28.438Z,11.89
2023-04-18T08:03:28.584Z,11.60
2023-04-18T08:04:30.073Z,11.44
2023-04-18T08:05:28.515Z,11.53
2023-04-18T08:06:28.500Z,11.73
2023-04-18T08:07:28.475Z,11.96
2023-04-18T08:08:28.521Z,12.29
2023-04-18T08:09:28.582Z,11.95
2023-04-18T08:10:28.591Z,11.88
2023-04-18T08:11:28.597Z,11.58
2023-04-18T08:12:28.578Z,11.76
2023-04-18T08:13:28.580Z,11.86
2023-04-18T08:14:28.666Z,12.21
2023-04-18T08:15:28.632Z,12.53
2023-04-18T08:16:28.715Z,12.44
2023-04-18T08:17:28.778Z,12.84
2023-04-18T08:18:28.710Z,12.93
2023-04-18T08:19:28.748Z,12.62
2023-04-18T08:20:28.764Z,12.47
2023-04-18T08:21:28.798Z,12.44
2023-04-18T08:22:28.864Z,12.30
2023-04-18T08:23:28.876Z,12.28
2023-04-18T08:24:28.901Z,12.37
2023-04-18T08:25:28.959Z,12.66
2023-04-18T08:26:28.941Z,12.62
2023-04-18T08:27:28.977Z,12.47
2023-04-18T08:28:28.963Z,11.81
2023-04-18T08:29:28.949Z,11.63
2023-04-18T08:30:29.005Z,11.65
2023-04-18T08:31:29.064Z,11.95
2023-04-18T08:32:29.176Z,12.25
2023-04-18T08:33:29.150Z,12.29
2023-04-18T08:34:29.216Z,12.05
2023-04-18T08:35:29.245Z,11.91
2023-04-18T08:36:29.299Z,11.80
2023-04-18T08:37:29.296Z,11.83
2023-04-18T08:38:29.288Z,11.80
2023-04-18T08:39:29.312Z,11.77
2023-04-18T08:40:29.310Z,11.77
2023-04-18T08:41:29.363Z,11.76
2023-04-18T08:42:29.401Z,11.74
2023-04-18T08:43:29.461Z,11.97
2023-04-18T08:44:29.449Z,11.80
2023-04-18T08:45:29.565Z,11.96
2023-04-18T08:46:29.571Z,11.91
2023-04-18T08:47:29.548Z,11.73
2023-04-18T08:48:29.558Z,11.88
2023-04-18T08:49:29.608Z,11.95
2023-04-18T08:50:29.654Z,12.18
2023-04-18T08:51:29.676Z,12.57
2023-04-18T08:52:29.818Z,12.78
2023-04-18T08:53:29.768Z,12.91
2023-04-18T08:54:29.802Z,12.65
2023-04-18T08:55:29.797Z,12.39
2023-04-18T08:56:29.818Z,12.20
2023-04-18T08:57:29.862Z,12.23
2023-04-18T08:58:29.853Z,11.96
2023-04-18T08:59:29.837Z,12.15
2023-04-18T09:00:29.869Z,12.29
2023-04-18T09:01:29.916Z,12.25
2023-04-18T09:02:30.016Z,11.81
2023-04-18T09:03:29.959Z,11.86
2023-04-18T09:04:29.998Z,11.74
2023-04-18T09:05:30.036Z,11.68
2023-04-18T09:06:30.079Z,11.80
2023-04-18T09:07:30.082Z,11.83
2023-04-18T09:08:30.115Z,11.76
2023-04-18T09:09:30.173Z,12.05
2023-04-18T09:10:30.221Z,12.20
2023-04-18T09:11:30.254Z,12.15
2023-04-18T09:12:30.304Z,12.44
2023-04-18T09:13:30.291Z,12.58
2023-04-18T09:14:30.336Z,12.80
2023-04-18T09:15:30.377Z,12.57
2023-04-18T09:16:30.445Z,12.57
2023-04-18T09:17:30.474Z,12.62
2023-04-18T09:18:30.444Z,12.66
2023-04-18T09:19:30.520Z,12.90
2023-04-18T09:20:30.584Z,13.12
2023-04-18T09:21:30.560Z,13.40
2023-04-18T09:22:30.559Z,13.31
2023-04-18T09:23:30.666Z,13.19
2023-04-18T09:24:30.685Z,13.49
2023-04-18T09:25:30.719Z,13.68
2023-04-18T09:26:30.735Z,13.71
2023-04-18T09:27:30.712Z,13.40
2023-04-18T09:28:30.809Z,13.50
2023-04-18T09:29:30.796Z,13.89
2023-04-18T09:30:30.843Z,14.44
2023-04-18T09:31:30.932Z,14.44
2023-04-18T09:32:30.964Z,14.26
2023-04-18T09:33:30.892Z,14.71
2023-04-18T09:34:30.895Z,15.04
2023-04-18T09:35:30.924Z,15.07
2023-04-18T09:36:30.939Z,15.05
2023-04-18T09:37:30.923Z,15.11
2023-04-18T09:38:30.943Z,14.86
2023-04-18T09:39:30.973Z,15.32
2023-04-18T09:40:31.011Z,15.18
2023-04-18T09:41:31.029Z,15.08
2023-04-18T09:42:30.980Z,14.87
2023-04-18T09:43:30.994Z,14.89
2023-04-18T09:44:31.033Z,15.07
2023-04-18T09:45:31.086Z,15.23
2023-04-18T09:46:31.116Z,15.80
2023-04-18T09:47:31.140Z,15.94
2023-04-18T09:48:31.113Z,15.94
2023-04-18T09:49:31.115Z,15.80
2023-04-18T09:50:31.180Z,15.92
2023-04-18T09:51:31.198Z,15.37
2023-04-18T09:52:31.244Z,15.22
2023-04-18T09:53:31.267Z,15.54
2023-04-18T09:54:31.270Z,16.32
2023-04-18T09:55:31.273Z,16.57
2023-04-18T09:56:31.238Z,16.84
2023-04-18T09:57:31.247Z,16.79
2023-04-18T09:58:31.292Z,16.55
2023-04-18T09:59:31.315Z,16.57
2023-04-18T10:00:31.377Z,16.32
2023-04-18T10:01:31.374Z,16.82
2023-04-18T10:02:31.546Z,16.76
2023-04-18T10:03:31.617Z,15.98
2023-04-18T10:04:31.548Z,15.84
2023-04-18T10:05:31.566Z,15.54
2023-04-18T10:06:31.548Z,15.29
2023-04-18T10:07:31.550Z,15.47
2023-04-18T10:08:31.594Z,15.22
2023-04-18T10:09:31.557Z,15.15
2023-04-18T10:10:31.583Z,14.97
2023-04-18T10:11:31.576Z,15.10
2023-04-18T10:12:31.572Z,15.10
2023-04-18T10:13:31.577Z,15.08
2023-04-18T10:14:31.678Z,15.05
2023-04-18T10:15:31.730Z,15.32
2023-04-18T10:16:33.390Z,15.44
2023-04-18T10:17:31.906Z,15.23
2023-04-18T10:18:31.922Z,15.19
2023-04-18T10:19:31.848Z,15.08
2023-04-18T10:20:31.924Z,14.90
2023-04-18T10:21:31.914Z,14.70
2023-04-18T10:22:32.013Z,14.99
2023-04-18T10:23:32.002Z,14.63
2023-04-18T10:24:32.040Z,14.56
2023-04-18T10:25:32.104Z,14.70
2023-04-18T10:26:32.075Z,14.77
2023-04-18T10:27:32.109Z,15.27
2023-04-18T10:28:32.143Z,16.02
2023-04-18T10:29:32.213Z,16.54
2023-04-18T10:30:32.283Z,16.26
2023-04-18T10:31:32.302Z,16.58
2023-04-18T10:32:32.284Z,16.47
2023-04-18T10:33:32.905Z,15.94
2023-04-18T10:34:32.266Z,16.24
2023-04-18T10:35:32.266Z,16.43
2023-04-18T10:36:32.309Z,16.26
2023-04-18T10:37:32.311Z,16.02
2023-04-18T10:38:32.339Z,15.94
2023-04-18T10:39:32.392Z,15.84
2023-04-18T10:40:32.405Z,15.94
2023-04-18T10:41:32.407Z,16.00
2023-04-18T10:42:32.403Z,16.24
2023-04-18T10:43:32.340Z,16.50
2023-04-18T10:44:32.351Z,17.17
2023-04-18T10:45:32.370Z,16.89
2023-04-18T10:46:33.048Z,17.17
2023-04-18T10:47:32.580Z,18.05
2023-04-18T10:48:32.427Z,18.53
2023-04-18T10:49:33.113Z,19.42
2023-04-18T10:50:32.507Z,19.57
2023-04-18T10:51:32.514Z,19.17
2023-04-18T10:52:32.600Z,18.58
2023-04-18T10:53:32.545Z,17.98
2023-04-18T10:54:32.571Z,17.63
2023-04-18T10:55:32.604Z,17.10
2023-04-18T10:56:32.654Z,17.46
2023-04-18T10:57:32.685Z,17.71
2023-04-18T10:58:32.712Z,18.19
2023-04-18T10:59:32.811Z,17.87
2023-04-18T11:00:32.893Z,17.28
2023-04-18T11:01:33.252Z,16.82
2023-04-18T11:02:33.075Z,16.87
2023-04-18T11:03:33.048Z,17.12
2023-04-18T11:04:32.962Z,17.24
2023-04-18T11:05:32.971Z,16.50
2023-04-18T11:06:33.014Z,16.32
2023-04-18T11:07:33.006Z,16.61
2023-04-18T11:08:33.007Z,16.54
2023-04-18T11:09:33.047Z,16.73
2023-04-18T11:10:33.050Z,16.95
2023-04-18T11:11:33.070Z,16.73
2023-04-18T11:12:33.110Z,16.55
2023-04-18T11:13:33.111Z,16.37
2023-04-18T11:14:33.146Z,16.03
2023-04-18T11:15:33.209Z,16.26
2023-04-18T11:16:33.314Z,16.55
2023-04-18T11:17:33.292Z,16.66
2023-04-18T11:18:33.258Z,16.98
2023-04-18T11:19:33.341Z,16.64
2023-04-18T11:20:33.383Z,16.43
2023-04-18T11:21:33.405Z,17.12
2023-04-18T11:22:33.473Z,17.05
2023-04-18T11:23:33.480Z,16.92
2023-04-18T11:24:33.495Z,16.57
2023-04-18T11:25:33.512Z,16.51
2023-04-18T11:26:33.589Z,16.77
2023-04-18T11:27:33.546Z,16.89
2023-04-18T11:28:33.555Z,16.98
2023-04-18T11:29:33.594Z,16.84
2023-04-18T11:30:33.569Z,16.80
2023-04-18T11:31:33.660Z,17.13
2023-04-18T11:32:33.804Z,17.20
2023-04-18T11:33:33.634Z,17.20
2023-04-18T11:34:33.763Z,17.34
2023-04-18T11:35:33.638Z,17.13
2023-04-18T11:36:33.668Z,17.07
2023-04-18T11:37:33.714Z,16.82
2023-04-18T11:48:35.600Z,17.13
2023-04-18T11:49:35.636Z,17.27
2023-04-18T11:50:35.675Z,17.80
2023-04-18T11:51:35.741Z,18.46
2023-04-18T11:52:35.681Z,18.09
2023-04-18T11:53:35.747Z,17.63
2023-04-18T11:54:35.784Z,17.82
2023-04-18T11:55:35.806Z,17.05
2023-04-18T11:56:36.932Z,17.01
2023-04-18T11:57:35.849Z,17.22
2023-04-18T11:58:35.903Z,17.05
2023-04-18T11:59:35.899Z,17.16
2023-04-18T12:00:35.921Z,17.14
2023-04-18T12:01:35.962Z,17.34
2023-04-18T12:02:36.038Z,17.14
2023-04-18T12:03:36.250Z,17.20
2023-04-18T12:04:36.236Z,17.13
2023-04-18T12:05:36.369Z,16.82
2023-04-18T12:06:36.065Z,16.92
2023-04-18T12:07:36.150Z,16.89
2023-04-18T12:08:36.097Z,16.89
2023-04-18T12:09:36.151Z,16.91
2023-04-18T12:10:36.214Z,16.92
2023-04-18T12:11:36.244Z,16.69
2023-04-18T12:12:36.267Z,16.91
2023-04-18T12:13:36.286Z,17.23
2023-04-18T12:14:36.294Z,16.86
2023-04-18T12:15:36.305Z,17.27
2023-04-18T12:16:36.372Z,17.22
2023-04-18T12:17:36.450Z,17.04
2023-04-18T12:18:36.450Z,16.89
2023-04-18T12:19:36.480Z,16.32
2023-04-18T12:20:36.558Z,16.47
2023-04-18T12:21:36.517Z,16.43
2023-04-18T12:22:36.577Z,16.46
2023-04-18T12:23:36.620Z,16.50
2023-04-18T12:24:36.637Z,16.49
2023-04-18T12:25:36.708Z,16.74
2023-04-18T12:26:36.695Z,17.59
2023-04-18T12:27:36.755Z,18.39
2023-04-18T12:28:36.766Z,18.19
2023-04-18T12:29:36.776Z,17.24
2023-04-18T12:30:37.817Z,16.86
2023-04-18T12:31:36.926Z,16.74
2023-04-18T12:32:36.961Z,16.59
2023-04-18T12:33:36.973Z,16.62
2023-04-18T12:34:36.971Z,16.86
2023-04-18T12:35:36.964Z,16.58
2023-04-18T12:36:37.021Z,16.79
2023-04-18T12:37:37.029Z,16.66
2023-04-18T12:38:37.042Z,16.59
2023-04-18T12:39:37.078Z,16.10
2023-04-18T12:40:37.177Z,15.69
2023-04-18T12:41:37.140Z,15.65
2023-04-18T12:42:37.171Z,16.50
2023-04-18T12:43:37.204Z,17.44
2023-04-18T12:44:37.251Z,18.06
2023-04-18T12:45:37.280Z,17.97
2023-04-18T12:46:37.347Z,18.60
2023-04-18T12:47:37.333Z,18.49
2023-04-18T12:48:37.294Z,18.03
2023-04-18T12:49:37.296Z,17.73
2023-04-18T12:50:37.303Z,18.08
2023-04-18T12:51:37.323Z,17.56
2023-04-18T12:52:37.310Z,17.05
2023-04-18T12:53:37.334Z,16.74
2023-04-18T12:54:38.049Z,16.31
2023-04-18T12:55:37.403Z,16.76
2023-04-18T12:56:37.420Z,17.16
2023-04-18T12:57:37.423Z,17.02
2023-04-18T12:58:37.484Z,16.95
2023-04-18T12:59:37.496Z,16.59
2023-04-18T13:00:37.647Z,16.49
2023-04-18T13:01:37.687Z,16.17
2023-04-18T13:02:37.805Z,15.88
2023-04-18T13:03:37.808Z,15.78
2023-04-18T13:04:37.893Z,15.44
2023-04-18T13:05:37.718Z,15.57
2023-04-18T13:06:37.767Z,16.09
2023-04-18T13:07:37.747Z,16.24
2023-04-18T13:08:37.765Z,17.05
2023-04-18T13:09:37.798Z,17.19